• Join FlightAware (Why Join?)
  • Login
  • US Flag 
Rudolph Flight #1: Arrived! 
05:39PM EST


 

Airport Tracker/Info


-or-


 

Live Flight TrackerFlight Track Log ✈ N244A ✈ 07-Mar-2014 ✈ KSSI - KAUS

Flight Track Log - Related Links

Times and Time Zones

All times are in EST time to prevent confusion due to time zone crossing. See the N244A flight status page for this flight to view local times or setup timezone preferences in your user account.

Time Position Orientation Groundspeed Altitude Reporting Facility
EST Latitude Longitude Course Direction KTS MPH feet Rate Location/Type
07:39PM 31.2297 -81.3086 16° North 326 375 2,500  Level Jacksonville Center
07:40PM 31.2836 -81.2906 16° North 227 261 4,400 3,180 Climbing Jacksonville Center
07:42PM 31.2753 -81.4561 267° West 241 277 12,200 3,120 Climbing Jacksonville Center
07:43PM 31.2786 -81.5653 272° West 298 343 13,800 2,100 Climbing Jacksonville Center
07:44PM 31.2714 -81.6894 266° West 350 403 16,400 2,880 Climbing Jacksonville Center
07:45PM 31.2600 -81.8111 264° West 375 432 19,600 2,520 Climbing Jacksonville Center
07:46PM 31.2506 -81.9350 265° West 387 445 21,500 1,620 Climbing Jacksonville Center
07:47PM 31.2411 -82.0639 265° West 392 451 22,900 1,740 Climbing Jacksonville Center
07:48PM 31.2292 -82.2000 264° West 412 474 25,000 1,980 Climbing Jacksonville Center
07:49PM 31.2278 -82.3411 269° West 413 475 26,900 1,140 Climbing Jacksonville Center
07:50PM 31.2283 -82.4747 270° West 408 470 27,300 1,260 Climbing Jacksonville Center
07:51PM 31.2286 -82.6011 270° West 408 470 29,500 2,100 Climbing Jacksonville Center
07:52PM 31.2081 -82.7275 259° West 401 461 31,600 1,500 Climbing Jacksonville Center
07:53PM 31.1956 -82.8392 263° West 385 443 32,600 840 Climbing Jacksonville Center
07:54PM 31.1872 -82.9631 266° West 379 436 33,300 660 Climbing Jacksonville Center
07:55PM 31.1725 -83.0892 262° West 384 442 34,000 300 Climbing Jacksonville Center
07:56PM 31.1639 -83.2106 265° West 389 448 34,000  Level Jacksonville Center
07:57PM 31.1572 -83.3344 266° West 389 448 34,000  Level Jacksonville Center
07:58PM 31.1442 -83.4606 263° West 389 448 34,000  Level Jacksonville Center
07:59PM 31.1333 -83.5819 264° West 389 448 34,000  Level Jacksonville Center
08:00PM 31.1219 -83.7106 264° West 389 448 34,000  Level Jacksonville Center
08:01PM 31.1108 -83.8342 264° West 389 448 34,000  Level Jacksonville Center
08:02PM 31.0994 -83.9578 264° West 389 448 34,000  Level Jacksonville Center
08:03PM 31.0900 -84.0619 264° West 389 448 34,000  Level Jacksonville Center
08:04PM 31.0783 -84.1975 264° West 389 448 34,000  Level Jacksonville Center
08:05PM 31.0644 -84.3258 263° West 389 448 34,000  Level Jacksonville Center
08:06PM 31.0525 -84.4519 264° West 389 448 34,000  Level Jacksonville Center
08:07PM 31.0447 -84.5778 266° West 389 448 34,000  Level Jacksonville Center
08:08PM 31.0283 -84.7036 261° West 394 453 34,000  Level Jacksonville Center
08:09PM 31.0181 -84.8294 265° West 399 459 34,000 -60 Level Jacksonville Center
08:10PM 31.0056 -84.9553 263° West 399 459 33,900 -60 Descending Jacksonville Center
08:11PM 30.9931 -85.0858 264° West 399 459 33,900  Level Jacksonville Center
08:12PM 30.9803 -85.2139 263° West 406 467 33,900  Level Jacksonville Center
08:13PM 30.9675 -85.3419 263° West 406 467 33,900  Level Jacksonville Center
08:14PM 30.9567 -85.4700 264° West 406 467 33,900  Level Jacksonville Center
08:15PM 30.9414 -85.5981 262° West 406 467 33,900  Level Jacksonville Center
08:16PM 30.9281 -85.7283 263° West 411 473 33,900  Level Jacksonville Center
08:17PM 30.9125 -85.8586 262° West 406 467 33,900  Level Jacksonville Center
08:18PM 30.8992 -85.9867 263° West 406 467 33,900  Level Jacksonville Center
08:19PM 30.8878 -86.1119 264° West 406 467 33,900  Level Jacksonville Center
08:20PM 30.8739 -86.2447 263° West 406 467 33,900  Level Jacksonville Center
08:21PM 30.8578 -86.3725 262° West 406 467 33,900  Level Jacksonville Center
08:22PM 30.8461 -86.4953 264° West 406 467 33,900  Level Jacksonville Center
08:23PM 30.8297 -86.6253 262° West 406 467 33,900  Level Jacksonville Center
08:24PM 30.8214 -86.7628 266° West 406 467 34,000  Climbing Jacksonville Center
08:25PM 30.8133 -86.8883 266° West 406 467 34,000  Level Jacksonville Center
08:26PM 30.8053 -87.0161 266° West 406 467 34,000  Level Jacksonville Center
08:27PM 30.7947 -87.1439 265° West 406 467 34,000  Level Jacksonville Center
08:28PM 30.7842 -87.2714 265° West 406 467 34,000  Level Jacksonville Center
08:30PM 30.7669 -87.5222 265° West 396 456 34,000  Level Houston Center
08:31PM 30.7581 -87.6492 265° West 395 455 34,000  Level Houston Center
08:32PM 30.7464 -87.7919 265° West 396 456 34,000 -60 Level Houston Center
08:33PM 30.7369 -87.9194 265° West 396 456 33,900 -60 Descending Houston Center
08:34PM 30.7281 -88.0461 265° West 396 456 33,900  Level Houston Center
08:35PM 30.7172 -88.1722 264° West 396 456 33,900  Level Houston Center
08:36PM 30.7078 -88.2986 265° West 396 456 33,900  Level Houston Center
08:37PM 30.6978 -88.4397 265° West 392 451 34,000  Climbing Houston Center
08:38PM 30.6872 -88.5664 264° West 392 451 34,000  Level Houston Center
08:39PM 30.6758 -88.6917 264° West 390 449 34,000  Level Houston Center
08:40PM 30.6656 -88.8167 265° West 389 448 34,000 -60 Level Houston Center
08:41PM 30.6547 -88.9494 265° West 390 449 33,900 -60 Descending Houston Center
08:42PM 30.6444 -89.0753 265° West 391 450 33,900  Level Houston Center
08:44PM 30.6322 -89.2256 265° West 391 450 34,000  Climbing Houston Center
08:45PM 30.6219 -89.3522 265° West 394 453 33,900 -60 Descending Houston Center
08:46PM 30.6122 -89.4764 265° West 392 451 33,900  Level Houston Center
08:47PM 30.6003 -89.6008 264° West 391 450 33,900  Level Houston Center
08:48PM 30.5889 -89.7242 264° West 391 450 33,900  Level Houston Center
08:49PM 30.5756 -89.8717 264° West 391 450 33,900  Level Houston Center
08:50PM 30.5644 -89.9947 264° West 391 450 33,900  Level Houston Center
08:51PM 30.5531 -90.1183 264° West 390 449 33,900  Level Houston Center
08:52PM 30.5406 -90.2428 263° West 390 449 33,900  Level Houston Center
08:53PM 30.5289 -90.3667 264° West 390 449 33,900  Level Houston Center
08:54PM 30.5156 -90.5147 264° West 389 448 33,900  Level Houston Center
08:55PM 30.5031 -90.6392 263° West 389 448 33,900  Level Houston Center
08:56PM 30.4908 -90.7639 264° West 389 448 33,900  Level Houston Center
08:57PM 30.4783 -90.8889 263° West 390 449 33,900  Level Houston Center
08:58PM 30.4656 -91.0131 263° West 390 449 33,900  Level Houston Center
08:59PM 30.4522 -91.1378 263° West 391 450 33,900  Level Houston Center
09:00PM 30.4378 -91.2878 264° West 391 450 33,900  Level Houston Center
09:01PM 30.4242 -91.4125 263° West 391 450 33,900  Level Houston Center
09:02PM 30.4125 -91.5372 264° West 392 451 33,900  Level Houston Center
09:03PM 30.3981 -91.6625 262° West 392 451 33,900  Level Houston Center
09:04PM 30.3850 -91.7853 263° West 392 451 34,000  Climbing Houston Center
09:05PM 30.3714 -91.9108 263° West 392 451 34,000  Level Houston Center
09:06PM 30.3589 -92.0375 264° West 394 453 34,000  Level Houston Center
09:07PM 30.3419 -92.1875 263° West 394 453 34,000  Level Houston Center
09:08PM 30.3281 -92.3136 263° West 393 452 34,000  Level Houston Center
09:09PM 30.3150 -92.4339 263° West 393 452 34,000 -60 Level Houston Center
09:10PM 30.3014 -92.5592 263° West 394 453 33,900 -60 Descending Houston Center
09:11PM 30.2867 -92.6847 262° West 394 453 33,900  Level Houston Center
09:12PM 30.2731 -92.8111 263° West 394 453 33,900  Level Houston Center
09:13PM 30.2550 -92.9631 262° West 395 455 33,900  Level Houston Center
09:14PM 30.2397 -93.0889 262° West 395 455 33,900  Level Houston Center
09:15PM 30.2250 -93.2158 262° West 396 456 33,900  Level Houston Center
09:16PM 30.2097 -93.3428 262° West 396 456 33,900  Level Houston Center
09:17PM 30.1953 -93.4714 263° West 396 456 33,900  Level Houston Center
09:20PM 30.1644 -93.7269 262° West 396 456 33,900  Level Houston Center
09:21PM 30.1500 -93.8519 262° West 395 455 33,900  Level Houston Center
09:22PM 30.1342 -93.9772 262° West 394 453 33,900  Level Houston Center
09:23PM 30.1192 -94.1031 262° West 394 453 33,900  Level Houston Center
09:24PM 30.1036 -94.2281 262° West 394 453 33,900  Level Houston Center
09:25PM 30.0833 -94.3772 261° West 394 453 33,900  Level Houston Center
09:26PM 30.0694 -94.4883 262° West 393 452 34,000  Climbing Houston Center
09:27PM 30.0536 -94.6125 262° West 393 452 34,000  Level Houston Center
09:28PM 30.0375 -94.7372 262° West 393 452 34,000  Level Houston Center
09:29PM 30.0186 -94.8853 262° West 393 452 34,000  Level Houston Center
09:30PM 30.0022 -95.0092 261° West 393 452 34,000  Level Houston Center
09:31PM 29.9864 -95.1328 262° West 393 452 34,000  Level Houston Center
09:32PM 29.9692 -95.2561 261° West 393 452 34,000  Level Houston Center
09:33PM 29.9533 -95.3800 262° West 393 452 34,000 -120 Level Houston Center
09:34PM 29.9247 -95.5006 255° West 394 453 33,800 -1,080 Descending Houston Center
09:35PM 29.8947 -95.6433 256° West 389 448 31,800 -2,340 Descending Houston Center
09:36PM 29.8692 -95.7650 256° West 389 448 29,100 -2,400 Descending Houston Center
09:37PM 29.8433 -95.8894 257° West 398 458 26,900 -1,980 Descending Houston Center
09:38PM 29.8169 -96.0108 256° West 397 457 25,100 -1,920 Descending Houston Center
09:39PM 29.7911 -96.1289 256° West 401 461 23,000 -1,980 Descending Houston Center
09:40PM 29.7856 -96.2647 267° West 426 490 21,100 -1,980 Descending Houston Center
09:41PM 29.7989 -96.4283 275° West 428 493 19,000 -1,740 Descending Houston Center
09:42PM 29.8178 -96.5611 279° West 427 491 17,600 -1,620 Descending Houston Center
09:43PM 29.8869 -96.6661 307° West 417 480 15,800 -1,860 Descending Houston Center
09:44PM 29.9658 -96.7650 313° West 418 481 13,900 -1,860 Descending Houston Center
09:45PM 30.0436 -96.8650 312° West 419 482 12,100 -1,080 Descending Houston Center
09:46PM 30.0817 -96.9761 292° West 371 427 11,700 -1,260 Descending Houston Center
09:47PM 30.1100 -97.0731 289° West 284 327 9,600 -1,500 Descending Houston Center
09:48PM 30.1336 -97.1611 287° West 282 325 8,700 -1,200 Descending Houston Center
09:49PM 30.1578 -97.2475 288° West 281 323 7,200 -840 Descending Houston Center
09:50PM 30.1897 -97.3331 293° West 284 327 7,000 -300 Descending Houston Center
09:51PM 30.2247 -97.4153 296° West 284 327 6,600 -840 Descending Houston Center
09:52PM 30.2597 -97.5008 295° West 284 327 5,400 -1,260 Descending Houston Center
09:53PM 30.2969 -97.5689 302° West 261 300 4,100 -960 Descending Houston Center
09:54PM 30.3400 -97.6214 314° West 231 266 3,500 -480 Descending Houston Center
09:55PM 30.3172 -97.6631 238° Southwest 213 245 3,200 -660 Descending Houston Center
09:56PM 30.2650 -97.6586 176° South 195 224 2,200 -960 Descending Houston Center
09:57PM 30.2325 -97.6586 180° South 142 163 1,300 -600 Descending Houston Center
09:58PM 30.2036 -97.6575 178° South 136 157 1,100 -240 Descending Houston Center